Time;durP1;ratioP1;P1;durP2;ratioP2;P2;SDS_P1;SDS_P2;PMS_P1;PMS_P2;Temp;Humidity;BMP_temperature;BMP_pressure;BME280_temperature;BME280_humidity;BME280_pressure;Samples;Min_cycle;Max_cycle;Signal;HPM_P1;HPM_P2
2021/04/23 00:01:08;;;;;;;14.50;5.90;;;6.30;99.90;;;;;;4968136;28;20238;-57
2021/04/23 00:03:41;;;;;;;17.40;6.50;;;6.30;99.90;;;;;;4969109;28;20238;-57
2021/04/23 00:06:14;;;;;;;15.10;6.93;;;6.30;99.90;;;;;;4970643;28;20238;-56
2021/04/23 00:08:43;;;;;;;17.37;6.27;;;6.30;99.90;;;;;;4987513;28;20292;-57
2021/04/23 00:11:16;;;;;;;15.87;6.33;;;6.30;99.90;;;;;;4999499;28;20320;-57
2021/04/23 00:13:43;;;;;;;14.80;7.37;;;6.30;99.90;;;;;;4991845;28;20304;-57
2021/04/23 00:16:12;;;;;;;18.83;6.67;;;6.20;99.90;;;;;;4992088;28;20276;-58
2021/04/23 00:18:40;;;;;;;16.60;6.33;;;6.20;99.90;;;;;;4991723;28;20296;-56
2021/04/23 00:21:11;;;;;;;18.67;6.57;;;6.20;99.90;;;;;;4991116;28;20237;-54
2021/04/23 00:23:39;;;;;;;15.23;6.53;;;6.10;99.90;;;;;;4976154;28;20490;-55
2021/04/23 00:26:08;;;;;;;18.27;7.10;;;6.10;99.90;;;;;;4972450;28;20325;-56
2021/04/23 00:28:38;;;;;;;12.97;6.30;;;6.10;99.90;;;;;;4971817;28;20235;-54
2021/04/23 00:31:06;;;;;;;17.73;6.43;;;6.10;99.90;;;;;;4978681;28;20248;-55
2021/04/23 00:33:34;;;;;;;16.03;5.97;;;6.10;99.90;;;;;;4991762;28;20308;-54
2021/04/23 00:36:01;;;;;;;12.67;6.00;;;6.10;99.90;;;;;;5006633;28;20244;-56
2021/04/23 00:38:29;;;;;;;18.67;6.77;;;6.10;99.90;;;;;;4991162;28;20242;-57
2021/04/23 00:41:01;;;;;;;19.43;6.80;;;6.10;99.90;;;;;;4984159;28;20245;-56
2021/04/23 00:43:31;;;;;;;15.57;6.70;;;6.10;99.90;;;;;;4971685;28;20239;-55
2021/04/23 00:46:00;;;;;;;15.90;6.40;;;6.10;99.90;;;;;;4972034;28;20543;-54
2021/04/23 00:48:31;;;;;;;15.30;6.33;;;6.20;99.90;;;;;;4971706;28;20630;-54
2021/04/23 00:51:06;;;;;;;17.90;6.63;;;6.20;99.90;;;;;;4977862;28;20245;-58
2021/04/23 00:53:39;;;;;;;16.33;6.13;;;6.20;99.90;;;;;;4989956;28;20285;-55
2021/04/23 00:56:12;;;;;;;18.53;6.33;;;6.20;99.90;;;;;;4991169;28;20241;-57
2021/04/23 00:58:40;;;;;;;15.63;6.70;;;6.20;99.90;;;;;;4989964;28;20237;-55
2021/04/23 01:01:12;;;;;;;14.73;6.77;;;6.20;99.90;;;;;;4964820;28;20266;-57
2021/04/23 01:03:40;;;;;;;14.30;6.70;;;6.20;99.90;;;;;;4958217;28;20297;-54
2021/04/23 01:06:17;;;;;;;16.07;6.57;;;6.10;99.90;;;;;;4961080;28;20246;-57
2021/04/23 01:08:46;;;;;;;14.17;6.60;;;6.10;99.90;;;;;;4959606;28;20245;-56
2021/04/23 01:11:15;;;;;;;18.77;7.33;;;6.10;99.90;;;;;;4952049;28;20254;-56
2021/04/23 01:13:43;;;;;;;15.00;6.67;;;6.10;99.90;;;;;;4952627;28;20769;-56
2021/04/23 01:16:18;;;;;;;19.93;7.13;;;6.20;99.90;;;;;;4952373;28;20231;-58
2021/04/23 01:18:47;;;;;;;14.67;6.77;;;6.20;99.90;;;;;;4951287;28;20246;-58
2021/04/23 01:21:19;;;;;;;16.17;6.60;;;6.20;99.90;;;;;;4970602;28;20234;-56
2021/04/23 01:23:49;;;;;;;17.70;6.30;;;6.30;99.90;;;;;;4971172;28;20238;-55
2021/04/23 01:26:21;;;;;;;13.07;6.80;;;6.30;99.90;;;;;;4967290;28;20266;-58
2021/04/23 01:28:52;;;;;;;13.97;6.67;;;6.40;99.90;;;;;;4970792;28;20693;-58
2021/04/23 01:31:24;;;;;;;14.50;5.63;;;6.30;99.90;;;;;;4980238;28;20253;-58
2021/04/23 01:33:57;;;;;;;17.90;6.40;;;6.30;99.90;;;;;;4991002;28;20606;-58
2021/04/23 01:36:26;;;;;;;18.10;6.73;;;6.30;99.90;;;;;;4986175;28;20238;-55
2021/04/23 01:38:54;;;;;;;15.77;6.53;;;6.30;99.90;;;;;;4970777;28;20711;-56
2021/04/23 01:41:22;;;;;;;15.50;6.40;;;6.30;99.90;;;;;;4970506;28;20238;-57
2021/04/23 01:43:51;;;;;;;13.23;5.73;;;6.30;99.90;;;;;;4973316;28;20233;-57
2021/04/23 01:46:19;;;;;;;15.00;5.97;;;6.30;99.90;;;;;;4990279;28;20551;-57
2021/04/23 01:48:47;;;;;;;15.57;6.00;;;6.30;99.90;;;;;;4990117;28;20242;-58
2021/04/23 01:51:16;;;;;;;13.27;5.90;;;6.20;99.90;;;;;;4989974;28;20233;-56
2021/04/23 01:53:45;;;;;;;14.43;6.23;;;6.20;99.90;;;;;;4989732;28;20230;-57
2021/04/23 01:56:12;;;;;;;16.23;6.53;;;6.20;99.90;;;;;;4970882;28;20651;-57
2021/04/23 01:58:40;;;;;;;19.17;6.37;;;6.20;99.90;;;;;;4986050;28;20237;-57
2021/04/23 02:01:09;;;;;;;17.77;5.70;;;6.30;99.90;;;;;;4995440;28;20257;-57
2021/04/23 02:03:38;;;;;;;15.93;6.83;;;6.20;99.90;;;;;;4983053;28;20234;-55
2021/04/23 02:06:06;;;;;;;13.20;6.70;;;6.20;99.90;;;;;;4997771;28;20234;-57
2021/04/23 02:08:33;;;;;;;17.27;6.77;;;6.20;99.90;;;;;;5008990;28;20239;-58
2021/04/23 02:11:06;;;;;;;17.17;6.30;;;6.20;99.90;;;;;;5008581;28;20248;-55
2021/04/23 02:13:35;;;;;;;19.10;7.10;;;6.20;99.90;;;;;;5009293;28;20237;-58
2021/04/23 02:16:05;;;;;;;16.20;6.20;;;6.20;99.90;;;;;;4991911;28;20280;-56
2021/04/23 02:18:34;;;;;;;16.77;6.00;;;6.20;99.90;;;;;;4989416;28;20640;-56
2021/04/23 02:21:01;;;;;;;16.00;6.03;;;6.20;99.90;;;;;;4989349;28;20321;-56
2021/04/23 02:23:29;;;;;;;15.67;6.23;;;6.20;99.90;;;;;;4989480;28;20238;-58
2021/04/23 02:25:57;;;;;;;12.00;5.30;;;6.20;99.90;;;;;;4972711;28;20231;-55
2021/04/23 02:28:26;;;;;;;17.27;5.83;;;6.20;99.90;;;;;;4969670;28;20239;-58
2021/04/23 02:31:00;;;;;;;14.67;6.33;;;6.20;99.90;;;;;;4966234;28;20242;-54
2021/04/23 02:33:28;;;;;;;15.50;6.00;;;6.30;99.90;;;;;;4970369;28;20293;-56
2021/04/23 02:35:57;;;;;;;17.63;5.80;;;6.30;99.90;;;;;;4974319;28;20262;-54
2021/04/23 02:38:29;;;;;;;14.23;5.77;;;6.30;99.90;;;;;;4988796;28;20245;-58
2021/04/23 02:40:58;;;;;;;13.20;6.57;;;6.30;99.90;;;;;;4989012;28;20237;-56
2021/04/23 02:43:30;;;;;;;16.40;6.73;;;6.30;99.90;;;;;;4976825;28;20248;-55
2021/04/23 02:45:59;;;;;;;12.97;5.83;;;6.30;99.90;;;;;;4969888;28;20242;-55
2021/04/23 02:48:30;;;;;;;10.30;5.37;;;6.30;99.90;;;;;;4969204;28;20789;-54
2021/04/23 02:51:05;;;;;;;14.23;5.60;;;6.30;99.90;;;;;;4969388;28;20330;-54
2021/04/23 02:53:32;;;;;;;17.37;6.47;;;6.20;99.90;;;;;;4978833;28;20240;-56
2021/04/23 02:56:00;;;;;;;13.90;5.90;;;6.20;99.90;;;;;;4989176;28;20234;-57
2021/04/23 02:58:29;;;;;;;19.83;5.70;;;6.30;99.90;;;;;;4986132;28;20265;-56
2021/04/23 03:01:01;;;;;;;12.67;5.80;;;6.30;99.90;;;;;;4975729;28;20238;-56
2021/04/23 03:03:30;;;;;;;15.23;5.63;;;6.40;99.90;;;;;;4960549;28;20242;-58
2021/04/23 03:05:58;;;;;;;18.50;7.03;;;6.40;99.90;;;;;;4969636;28;20248;-57
2021/04/23 03:08:26;;;;;;;14.07;6.03;;;6.40;99.90;;;;;;4969320;28;20641;-55
2021/04/23 03:10:57;;;;;;;15.80;6.53;;;6.30;99.90;;;;;;4968776;28;20234;-57
2021/04/23 03:13:29;;;;;;;14.80;6.70;;;6.30;99.90;;;;;;4968460;28;20243;-56
2021/04/23 03:15:57;;;;;;;19.00;6.63;;;6.40;99.90;;;;;;4968041;28;20242;-57
2021/04/23 03:18:27;;;;;;;17.20;7.07;;;6.30;99.90;;;;;;4949901;28;20249;-55
2021/04/23 03:20:57;;;;;;;17.07;6.10;;;6.30;99.90;;;;;;4949544;28;20242;-58
2021/04/23 03:23:25;;;;;;;17.33;6.73;;;6.30;99.90;;;;;;4949993;28;20246;-57
2021/04/23 03:25:53;;;;;;;18.77;6.67;;;6.30;99.90;;;;;;4950014;28;20234;-57
2021/04/23 03:28:21;;;;;;;15.13;5.90;;;6.30;99.90;;;;;;4949503;28;20239;-56
2021/04/23 03:30:49;;;;;;;14.27;6.37;;;6.30;99.90;;;;;;4954524;28;20319;-58
2021/04/23 03:33:17;;;;;;;19.40;6.70;;;6.30;99.90;;;;;;4969509;28;20230;-54
2021/04/23 03:35:47;;;;;;;14.50;6.40;;;6.30;99.90;;;;;;4969335;28;20258;-55
2021/04/23 03:38:14;;;;;;;11.10;5.83;;;6.30;99.90;;;;;;4987491;28;20416;-55
2021/04/23 03:40:43;;;;;;;22.80;7.00;;;6.30;99.90;;;;;;4987928;28;20229;-57
2021/04/23 03:43:10;;;;;;;13.27;5.57;;;6.30;99.90;;;;;;4993070;28;20242;-56
2021/04/23 03:45:39;;;;;;;15.10;6.23;;;6.30;99.90;;;;;;4992748;28;20246;-56
2021/04/23 03:48:09;;;;;;;18.00;5.93;;;6.30;99.90;;;;;;4975256;28;20238;-56
2021/04/23 03:50:39;;;;;;;13.47;5.43;;;6.30;99.90;;;;;;4972347;28;20721;-55
2021/04/23 03:53:11;;;;;;;12.77;5.60;;;6.40;99.90;;;;;;4972615;28;20317;-57
2021/04/23 03:55:42;;;;;;;16.73;5.90;;;6.30;99.90;;;;;;4977374;28;20242;-57
2021/04/23 03:58:10;;;;;;;16.43;5.60;;;6.30;99.90;;;;;;4987368;28;20245;-58
2021/04/23 04:00:41;;;;;;;12.30;4.23;;;6.30;99.90;;;;;;5000681;28;20249;-58
2021/04/23 04:03:09;;;;;;;12.50;4.83;;;6.30;99.90;;;;;;5008281;28;20244;-57
2021/04/23 04:05:37;;;;;;;16.67;5.20;;;6.30;99.90;;;;;;4987110;28;20239;-55
2021/04/23 04:08:06;;;;;;;15.70;4.43;;;6.30;99.90;;;;;;4981151;28;20708;-56
2021/04/23 04:10:34;;;;;;;13.90;4.57;;;6.30;99.90;;;;;;4982290;28;20748;-57
2021/04/23 04:13:02;;;;;;;16.40;4.53;;;6.30;99.90;;;;;;4990208;28;20237;-56
2021/04/23 04:15:29;;;;;;;12.37;3.90;;;6.30;99.90;;;;;;4991942;28;20304;-54
2021/04/23 04:17:57;;;;;;;16.80;3.80;;;6.30;99.90;;;;;;5005858;28;20609;-55
2021/04/23 04:20:29;;;;;;;13.70;3.87;;;6.30;99.90;;;;;;4991206;28;20717;-57
2021/04/23 04:22:58;;;;;;;14.17;4.03;;;6.30;99.90;;;;;;4992252;28;20293;-55
2021/04/23 04:25:30;;;;;;;10.13;3.40;;;6.30;99.90;;;;;;4991992;28;20238;-55
2021/04/23 04:27:58;;;;;;;10.60;3.60;;;6.30;99.90;;;;;;4990909;28;20242;-56
2021/04/23 04:30:29;;;;;;;11.70;4.13;;;6.30;99.90;;;;;;4990215;28;20318;-56
2021/04/23 04:32:58;;;;;;;15.80;4.10;;;6.30;99.90;;;;;;4991994;28;20243;-54
2021/04/23 04:35:27;;;;;;;15.67;4.17;;;6.30;99.90;;;;;;4991753;28;20324;-54
2021/04/23 04:37:56;;;;;;;11.10;3.70;;;6.30;99.90;;;;;;4990111;28;20280;-57
2021/04/23 04:40:25;;;;;;;11.97;3.87;;;6.30;99.90;;;;;;4991007;28;20238;-55
2021/04/23 04:42:54;;;;;;;10.47;3.80;;;6.30;99.90;;;;;;4991371;28;20302;-56
2021/04/23 04:45:25;;;;;;;10.43;4.30;;;6.40;99.90;;;;;;4991565;28;20234;-54
2021/04/23 04:47:53;;;;;;;17.60;5.23;;;6.40;99.90;;;;;;4976694;28;20715;-56
2021/04/23 04:50:27;;;;;;;12.13;3.57;;;6.50;99.90;;;;;;4971413;28;20249;-56
2021/04/23 04:52:55;;;;;;;9.03;3.30;;;6.50;99.90;;;;;;4976196;28;20234;-54
2021/04/23 04:55:27;;;;;;;9.07;3.00;;;6.40;99.90;;;;;;4985134;28;20233;-58
2021/04/23 04:57:55;;;;;;;11.00;3.40;;;6.40;99.90;;;;;;5000902;28;20233;-56
2021/04/23 05:00:25;;;;;;;11.37;3.70;;;6.40;99.90;;;;;;4991838;28;20730;-54
2021/04/23 05:02:53;;;;;;;11.03;3.43;;;6.40;99.90;;;;;;4991242;28;20727;-54
2021/04/23 05:05:21;;;;;;;11.77;3.27;;;6.40;99.90;;;;;;4988568;28;20734;-56
2021/04/23 05:07:50;;;;;;;9.97;2.90;;;6.50;99.90;;;;;;4990355;28;20237;-56
2021/04/23 05:10:17;;;;;;;17.27;3.90;;;6.50;99.90;;;;;;4989908;28;20238;-54
2021/04/23 05:12:45;;;;;;;11.57;3.37;;;6.50;99.90;;;;;;4991262;28;20249;-57
2021/04/23 05:15:14;;;;;;;13.60;3.00;;;6.50;99.90;;;;;;4991149;28;20234;-56
2021/04/23 05:17:42;;;;;;;12.73;2.80;;;6.60;99.90;;;;;;4984576;28;20597;-57
2021/04/23 05:20:12;;;;;;;13.63;3.90;;;6.80;99.90;;;;;;4980105;28;20253;-58
2021/04/23 05:22:41;;;;;;;15.43;3.33;;;6.90;99.90;;;;;;4975345;28;20268;-57
2021/04/23 05:25:13;;;;;;;11.33;3.50;;;6.90;99.90;;;;;;4976143;28;20230;-56
2021/04/23 05:27:41;;;;;;;14.00;3.00;;;6.90;99.90;;;;;;4990164;28;20292;-58
2021/04/23 05:30:16;;;;;;;14.67;3.67;;;6.90;99.90;;;;;;4989875;28;20784;-56
2021/04/23 05:32:44;;;;;;;13.47;3.73;;;6.90;99.90;;;;;;4986770;28;20598;-55
2021/04/23 05:35:15;;;;;;;14.57;2.93;;;7.00;99.90;;;;;;4990788;28;20248;-55
2021/04/23 05:37:44;;;;;;;11.10;3.10;;;7.10;99.90;;;;;;5004673;28;20260;-57
2021/04/23 05:40:17;;;;;;;15.60;3.20;;;7.20;99.90;;;;;;4989905;28;20231;-56
2021/04/23 05:42:45;;;;;;;18.20;3.40;;;7.30;99.90;;;;;;4975603;28;20301;-56
2021/04/23 05:45:14;;;;;;;12.20;3.13;;;7.50;99.90;;;;;;4979604;28;20252;-56
2021/04/23 05:47:42;;;;;;;14.43;3.53;;;7.50;99.90;;;;;;4980912;28;20316;-57
2021/04/23 05:50:12;;;;;;;15.10;3.47;;;7.50;99.90;;;;;;4988559;28;20761;-54
2021/04/23 05:52:41;;;;;;;11.60;2.50;;;7.50;99.90;;;;;;4987668;28;20656;-57
2021/04/23 05:55:13;;;;;;;12.83;2.80;;;7.40;99.90;;;;;;4995067;28;20320;-55
2021/04/23 05:57:41;;;;;;;15.43;2.97;;;7.50;99.90;;;;;;5002315;28;20286;-56
2021/04/23 06:00:12;;;;;;;14.17;3.00;;;7.60;99.90;;;;;;5003524;28;20314;-53
2021/04/23 06:02:41;;;;;;;12.63;2.47;;;7.70;99.90;;;;;;4980814;28;20265;-55
2021/04/23 06:05:10;;;;;;;15.33;2.87;;;7.80;99.90;;;;;;4970078;28;20245;-56
2021/04/23 06:07:38;;;;;;;16.10;3.03;;;7.80;99.90;;;;;;4970115;28;20238;-56
2021/04/23 06:10:07;;;;;;;12.93;3.20;;;7.90;99.90;;;;;;4970117;28;20243;-56
2021/04/23 06:12:36;;;;;;;15.27;2.70;;;7.90;99.90;;;;;;4969978;28;20296;-56
2021/04/23 06:15:06;;;;;;;11.93;2.60;;;8.00;99.90;;;;;;4978067;28;20293;-56
2021/04/23 06:17:34;;;;;;;17.00;3.23;;;8.10;99.90;;;;;;4978477;28;20313;-57
2021/04/23 06:20:01;;;;;;;10.73;2.70;;;8.30;99.90;;;;;;4968422;28;20254;-55
2021/04/23 06:22:29;;;;;;;12.47;2.80;;;8.30;99.90;;;;;;4983468;28;20776;-57
2021/04/23 06:24:56;;;;;;;12.83;2.57;;;8.40;99.90;;;;;;4970539;28;20237;-57
2021/04/23 06:27:23;;;;;;;14.97;3.10;;;8.50;99.90;;;;;;4968474;28;20265;-54
2021/04/23 06:29:52;;;;;;;13.60;3.07;;;8.40;99.90;;;;;;4985951;28;20261;-57
2021/04/23 06:32:20;;;;;;;17.17;3.20;;;8.30;99.90;;;;;;4970110;28;20238;-56
2021/04/23 06:34:48;;;;;;;10.77;2.40;;;8.40;99.90;;;;;;4952901;28;20697;-55
2021/04/23 06:37:15;;;;;;;12.13;2.63;;;8.40;99.90;;;;;;4949419;28;20646;-57
2021/04/23 06:39:43;;;;;;;10.33;2.23;;;8.30;99.90;;;;;;4964582;28;20602;-58
2021/04/23 06:42:12;;;;;;;17.63;3.43;;;8.30;99.90;;;;;;4965521;28;20765;-59
2021/04/23 06:44:40;;;;;;;12.33;2.90;;;8.50;99.90;;;;;;4953339;28;20228;-57
2021/04/23 06:47:08;;;;;;;17.20;3.00;;;8.60;99.90;;;;;;4980215;28;20243;-58
2021/04/23 06:49:39;;;;;;;14.17;2.70;;;8.60;99.90;;;;;;4986073;28;20247;-58
2021/04/23 06:52:06;;;;;;;18.87;2.87;;;8.60;99.90;;;;;;4975055;28;20442;-57
2021/04/23 06:54:36;;;;;;;12.40;2.63;;;8.70;99.90;;;;;;4998959;28;20479;-57
2021/04/23 06:57:04;;;;;;;13.07;2.40;;;8.90;99.90;;;;;;4988349;28;20579;-58
2021/04/23 06:59:32;;;;;;;14.27;2.93;;;9.00;99.90;;;;;;4985891;28;20253;-56
2021/04/23 07:01:59;;;;;;;13.80;2.63;;;9.00;99.90;;;;;;4972952;28;20246;-58
2021/04/23 07:04:27;;;;;;;13.07;2.70;;;9.00;99.90;;;;;;4969293;28;20256;-57
2021/04/23 07:06:55;;;;;;;12.43;2.50;;;9.10;99.90;;;;;;4973748;28;20253;-58
2021/04/23 07:09:22;;;;;;;10.57;2.80;;;9.10;99.90;;;;;;4985624;28;20246;-59
2021/04/23 07:11:49;;;;;;;14.30;3.10;;;9.20;99.90;;;;;;4987684;28;20290;-57
2021/04/23 07:14:17;;;;;;;11.13;2.87;;;9.60;99.90;;;;;;4989215;28;20237;-57
2021/04/23 07:16:44;;;;;;;16.03;3.27;;;9.60;99.90;;;;;;4984831;28;20242;-57
2021/04/23 07:19:12;;;;;;;11.47;2.40;;;9.50;99.90;;;;;;4982878;28;20253;-59
2021/04/23 07:21:40;;;;;;;15.43;2.80;;;9.50;99.90;;;;;;4968849;28;20749;-56
2021/04/23 07:24:09;;;;;;;13.50;2.40;;;9.60;99.90;;;;;;4969426;28;20244;-58
2021/04/23 07:26:36;;;;;;;14.87;2.40;;;9.80;99.90;;;;;;4969129;28;20295;-58
2021/04/23 07:29:04;;;;;;;13.10;2.97;;;10.00;99.90;;;;;;4972389;28;20232;-59
2021/04/23 07:31:32;;;;;;;13.20;3.13;;;10.30;99.90;;;;;;4975955;28;20241;-59
2021/04/23 07:34:00;;;;;;;13.03;2.73;;;10.40;99.90;;;;;;4968866;28;20307;-57
2021/04/23 07:36:28;;;;;;;12.13;3.20;;;10.80;99.90;;;;;;4969011;28;20237;-57
2021/04/23 07:38:56;;;;;;;13.93;2.80;;;10.70;99.90;;;;;;4967516;28;20243;-58
2021/04/23 07:41:24;;;;;;;9.60;2.43;;;10.70;99.90;;;;;;4967925;28;20318;-58
2021/04/23 07:43:51;;;;;;;16.40;3.00;;;11.10;99.90;;;;;;4969043;28;20704;-58
2021/04/23 07:46:19;;;;;;;11.20;2.63;;;11.50;99.90;;;;;;4964450;28;20391;-59
2021/04/23 07:48:46;;;;;;;15.53;2.30;;;11.50;99.90;;;;;;4961651;28;20299;-58
2021/04/23 07:51:15;;;;;;;11.83;2.63;;;11.40;99.90;;;;;;4964321;28;20251;-57
2021/04/23 07:53:42;;;;;;;9.97;2.50;;;11.60;99.90;;;;;;4964977;28;20261;-58
2021/04/23 07:56:11;;;;;;;10.70;2.43;;;11.70;99.90;;;;;;4949359;28;20249;-58
2021/04/23 07:58:38;;;;;;;13.90;2.80;;;11.70;99.90;;;;;;4950209;28;20317;-57
2021/04/23 08:01:06;;;;;;;11.00;2.70;;;11.60;99.90;;;;;;4975671;28;20331;-58
2021/04/23 08:03:34;;;;;;;13.23;2.60;;;11.50;99.90;;;;;;4988217;28;20287;-58
2021/04/23 08:06:01;;;;;;;11.93;3.10;;;11.00;99.90;;;;;;4988392;28;20247;-59
2021/04/23 08:08:49;;;;;;;15.73;2.87;;;10.70;99.90;;;;;;4983214;28;20237;-59
2021/04/23 08:11:17;;;;;;;15.60;2.33;;;10.30;99.90;;;;;;4987339;28;20748;-59
2021/04/23 08:13:45;;;;;;;13.23;2.43;;;10.30;99.90;;;;;;4986445;28;20244;-57
2021/04/23 08:16:13;;;;;;;13.83;2.70;;;10.50;99.90;;;;;;4988314;28;20234;-58
2021/04/23 08:18:40;;;;;;;10.97;2.50;;;10.50;99.90;;;;;;4975101;28;20244;-58
2021/04/23 08:21:09;;;;;;;9.53;2.40;;;10.80;99.90;;;;;;4972073;28;20245;-58
2021/04/23 08:23:38;;;;;;;11.80;2.63;;;10.90;99.90;;;;;;4973187;28;20765;-56
2021/04/23 08:26:05;;;;;;;10.53;2.60;;;11.00;99.90;;;;;;4978773;28;20249;-55
2021/04/23 08:28:34;;;;;;;7.67;1.80;;;11.20;99.90;;;;;;4977840;28;20243;-57
2021/04/23 08:31:01;;;;;;;13.40;2.77;;;11.70;99.90;;;;;;4980333;28;20336;-57
2021/04/23 08:33:29;;;;;;;10.60;2.30;;;11.80;99.90;;;;;;4984194;28;20712;-57
2021/04/23 08:35:56;;;;;;;12.77;2.40;;;12.10;99.90;;;;;;4980378;28;20238;-58
2021/04/23 08:38:25;;;;;;;16.87;3.10;;;11.80;99.90;;;;;;4972720;28;20238;-58
2021/04/23 08:40:53;;;;;;;20.03;2.97;;;11.20;99.90;;;;;;4970234;28;20244;-58
2021/04/23 08:43:21;;;;;;;16.60;2.53;;;11.20;99.90;;;;;;4983116;28;20264;-58
2021/04/23 08:45:49;;;;;;;11.70;2.30;;;11.30;99.90;;;;;;4979153;28;20248;-58
2021/04/23 08:48:17;;;;;;;12.23;3.13;;;11.70;99.90;;;;;;4975394;28;20232;-59
2021/04/23 08:50:46;;;;;;;9.27;2.57;;;11.70;99.90;;;;;;4974323;28;20237;-58
2021/04/23 08:53:15;;;;;;;9.13;2.00;;;11.60;99.90;;;;;;4971680;28;20238;-58
2021/04/23 08:55:42;;;;;;;10.73;2.30;;;11.60;99.90;;;;;;4971435;28;20240;-58
2021/04/23 08:58:12;;;;;;;12.73;3.07;;;11.90;99.90;;;;;;4973782;28;20505;-58
2021/04/23 09:00:40;;;;;;;11.13;2.53;;;11.90;99.90;;;;;;4964918;28;20294;-58
2021/04/23 09:03:10;;;;;;;11.10;2.30;;;12.00;99.90;;;;;;4956210;28;20237;-57
2021/04/23 09:05:39;;;;;;;10.70;2.10;;;11.90;99.90;;;;;;4968156;28;20324;-57
2021/04/23 09:08:09;;;;;;;8.47;2.27;;;12.00;99.90;;;;;;4970271;28;20238;-57
2021/04/23 09:10:39;;;;;;;6.73;1.97;;;12.00;99.90;;;;;;4969714;28;20241;-58
2021/04/23 09:13:12;;;;;;;10.83;2.77;;;12.30;99.90;;;;;;4970658;28;20249;-58
2021/04/23 09:15:42;;;;;;;14.00;3.27;;;12.40;99.90;;;;;;4960353;28;20643;-57
2021/04/23 09:18:13;;;;;;;12.30;2.53;;;12.40;99.90;;;;;;4952508;28;20242;-57
2021/04/23 09:20:46;;;;;;;8.87;2.43;;;12.40;99.90;;;;;;4952604;28;20343;-58
2021/04/23 09:23:18;;;;;;;11.10;2.60;;;12.20;99.90;;;;;;4951953;28;20342;-56
2021/04/23 09:25:49;;;;;;;14.03;2.60;;;12.10;99.90;;;;;;4954307;28;20242;-57
2021/04/23 09:28:35;;;;;;;14.57;2.60;;;12.50;99.90;;;;;;4951355;28;20272;-57
2021/04/23 09:31:24;;;;;;;11.80;3.00;;;12.60;99.90;;;;;;4963912;28;20288;-57
2021/04/23 09:33:55;;;;;;;15.67;3.13;;;12.90;99.90;;;;;;4973247;28;20228;-56
2021/04/23 09:36:31;;;;;;;9.73;2.87;;;12.80;99.90;;;;;;4974395;28;20233;-57
2021/04/23 09:39:08;;;;;;;11.63;2.90;;;13.00;99.90;;;;;;4976131;28;20240;-56
2021/04/23 09:41:35;;;;;;;11.33;2.73;;;13.30;99.90;;;;;;4977840;28;20355;-56
2021/04/23 09:44:04;;;;;;;9.53;2.47;;;13.00;99.90;;;;;;4977689;28;20710;-56
2021/04/23 09:46:36;;;;;;;8.00;2.80;;;12.60;99.90;;;;;;4979178;28;20582;-57
2021/04/23 09:49:19;;;;;;;12.63;3.03;;;12.80;99.90;;;;;;4970087;28;20256;-56
2021/04/23 09:51:47;;;;;;;9.10;2.20;;;13.40;99.90;;;;;;4969405;28;20249;-57
2021/04/23 09:54:17;;;;;;;9.80;2.43;;;13.10;99.90;;;;;;4977294;28;20241;-56
2021/04/23 09:56:44;;;;;;;10.13;2.83;;;13.00;99.90;;;;;;4987388;28;20265;-55
2021/04/23 09:59:21;;;;;;;12.27;3.03;;;13.20;99.90;;;;;;4972430;28;20241;-55
2021/04/23 10:01:58;;;;;;;8.60;2.20;;;13.40;99.90;;;;;;4972001;28;20245;-55
2021/04/23 10:04:31;;;;;;;9.93;2.73;;;13.00;99.90;;;;;;4968562;28;20796;-56
2021/04/23 10:07:22;;;;;;;13.73;2.43;;;12.90;99.90;;;;;;4968528;28;20601;-56
2021/04/23 10:09:58;;;;;;;10.30;2.77;;;12.80;99.90;;;;;;4973261;28;20249;-58
2021/04/23 10:12:38;;;;;;;9.03;2.47;;;12.60;99.90;;;;;;4971468;28;20296;-58
2021/04/23 10:15:20;;;;;;;10.03;2.50;;;13.00;99.90;;;;;;4974464;28;20296;-58
2021/04/23 10:17:50;;;;;;;11.07;2.63;;;12.90;99.90;;;;;;4968408;28;20335;-56
2021/04/23 10:20:22;;;;;;;13.80;2.80;;;13.20;99.90;;;;;;4968759;28;20248;-58
2021/04/23 10:22:50;;;;;;;7.13;2.30;;;13.50;99.90;;;;;;4974467;28;20343;-58
2021/04/23 10:25:19;;;;;;;9.40;2.57;;;13.60;99.90;;;;;;4969188;28;20242;-56
2021/04/23 10:27:48;;;;;;;11.37;2.27;;;13.40;99.90;;;;;;4969675;28;20237;-56
2021/04/23 10:30:18;;;;;;;10.37;3.03;;;13.20;99.90;;;;;;4966942;28;20291;-55
2021/04/23 10:33:10;;;;;;;10.83;2.60;;;13.20;99.90;;;;;;4963794;28;20609;-54
2021/04/23 10:35:41;;;;;;;10.90;2.13;;;13.00;99.90;;;;;;4951236;28;20242;-53
2021/04/23 10:38:11;;;;;;;12.83;2.47;;;13.30;99.90;;;;;;4958935;28;20245;-56
2021/04/23 10:40:40;;;;;;;10.27;2.60;;;13.70;99.90;;;;;;4951677;28;20247;-55
2021/04/23 10:43:12;;;;;;;13.83;2.50;;;13.60;99.90;;;;;;4954910;28;20293;-54
2021/04/23 10:45:43;;;;;;;11.97;2.53;;;13.80;99.90;;;;;;4948671;28;20333;-56
2021/04/23 10:48:32;;;;;;;7.97;2.60;;;13.70;99.90;;;;;;4951058;28;20293;-55
2021/04/23 10:51:05;;;;;;;11.27;2.20;;;13.70;99.90;;;;;;4968807;28;20605;-55
2021/04/23 10:53:44;;;;;;;8.00;2.37;;;13.80;99.90;;;;;;4971421;28;20238;-56
2021/04/23 10:56:21;;;;;;;10.33;2.47;;;13.90;99.90;;;;;;4985886;28;20320;-57
2021/04/23 10:58:49;;;;;;;12.80;2.43;;;13.50;99.90;;;;;;4978897;28;20293;-56
2021/04/23 11:01:29;;;;;;;10.67;2.73;;;13.40;99.90;;;;;;4976424;28;20234;-57
2021/04/23 11:04:12;;;;;;;11.43;2.57;;;13.50;99.90;;;;;;4979709;28;20242;-57
2021/04/23 11:06:45;;;;;;;12.37;2.70;;;13.60;99.90;;;;;;4978144;28;20245;-56
2021/04/23 11:09:16;;;;;;;11.63;2.40;;;13.90;99.90;;;;;;4987143;28;20234;-56
2021/04/23 11:12:11;;;;;;;7.37;2.00;;;14.00;99.90;;;;;;4988589;28;20245;-53
2021/04/23 11:14:40;;;;;;;5.83;1.90;;;14.00;99.90;;;;;;4987250;28;20276;-54
2021/04/23 11:17:31;;;;;;;7.73;1.90;;;14.20;99.90;;;;;;4985707;28;20252;-54
2021/04/23 11:19:59;;;;;;;9.57;2.60;;;14.10;99.90;;;;;;4985465;28;20265;-56
2021/04/23 11:22:30;;;;;;;8.83;2.40;;;14.20;99.90;;;;;;4980788;28;20606;-55
2021/04/23 11:25:15;;;;;;;9.07;2.63;;;13.90;99.90;;;;;;4977215;28;20695;-55
2021/04/23 11:28:08;;;;;;;8.50;2.70;;;13.80;99.90;;;;;;4969436;28;20238;-53
2021/04/23 11:31:06;;;;;;;9.37;2.27;;;13.70;99.90;;;;;;4972165;28;20251;-53
2021/04/23 11:33:55;;;;;;;11.97;2.60;;;13.60;99.90;;;;;;4960148;28;20703;-56
2021/04/23 11:36:38;;;;;;;9.90;2.50;;;13.60;99.90;;;;;;4961445;28;20345;-54
2021/04/23 11:39:13;;;;;;;10.00;2.53;;;13.70;99.90;;;;;;4976742;28;20405;-53
2021/04/23 11:42:15;;;;;;;11.80;2.60;;;13.60;99.90;;;;;;4976858;28;20763;-58
2021/04/23 11:44:47;;;;;;;10.53;2.03;;;13.70;99.90;;;;;;4977321;28;20230;-56
2021/04/23 11:47:17;;;;;;;8.13;2.53;;;14.00;99.90;;;;;;4974692;28;20254;-56
2021/04/23 11:49:44;;;;;;;10.07;2.40;;;13.80;99.90;;;;;;4969166;28;20249;-56
2021/04/23 11:52:12;;;;;;;9.13;2.40;;;13.70;99.90;;;;;;4967343;28;20238;-54
2021/04/23 11:54:46;;;;;;;10.17;2.57;;;13.60;99.90;;;;;;4969205;28;20320;-56
2021/04/23 11:57:15;;;;;;;9.70;2.30;;;13.60;99.90;;;;;;4967119;28;20288;-55
2021/04/23 12:00:08;;;;;;;7.07;2.10;;;13.80;99.90;;;;;;4981817;28;20238;-54
2021/04/23 12:02:52;;;;;;;11.07;2.10;;;13.80;99.90;;;;;;4978149;28;20253;-55
2021/04/23 12:05:39;;;;;;;7.17;1.90;;;13.60;99.90;;;;;;4973259;28;20781;-53
2021/04/23 12:08:08;;;;;;;8.03;2.10;;;13.70;99.90;;;;;;4989003;28;20249;-54
2021/04/23 12:10:39;;;;;;;10.30;2.50;;;13.50;99.90;;;;;;4989010;28;20481;-55
2021/04/23 12:13:09;;;;;;;11.13;2.47;;;13.40;99.90;;;;;;4990309;28;20791;-56
2021/04/23 12:15:39;;;;;;;14.33;2.80;;;13.20;99.90;;;;;;4990857;28;20279;-56
2021/04/23 12:18:10;;;;;;;9.27;2.30;;;12.80;99.90;;;;;;4991029;28;20241;-54
2021/04/23 12:20:40;;;;;;;11.40;2.47;;;13.00;99.90;;;;;;4990059;28;20756;-57
2021/04/23 12:23:12;;;;;;;10.97;3.20;;;12.90;99.90;;;;;;4992434;28;20562;-54
2021/04/23 12:25:43;;;;;;;8.20;3.27;;;12.70;99.90;;;;;;4992839;28;20368;-53
2021/04/23 12:28:25;;;;;;;8.30;3.00;;;12.60;99.90;;;;;;4990320;28;20241;-56
2021/04/23 12:30:56;;;;;;;9.83;2.70;;;12.50;99.90;;;;;;4968173;28;20679;-56
2021/04/23 12:33:35;;;;;;;8.27;2.90;;;12.90;99.90;;;;;;4947107;28;20330;-55
2021/04/23 12:36:12;;;;;;;11.93;3.07;;;12.70;99.90;;;;;;4961020;28;20246;-57
2021/04/23 12:38:41;;;;;;;10.13;3.27;;;12.50;99.90;;;;;;4968941;28;20241;-56
2021/04/23 12:41:24;;;;;;;13.27;3.97;;;12.30;99.90;;;;;;4960463;28;20816;-54
2021/04/23 12:43:54;;;;;;;10.03;3.17;;;12.50;99.90;;;;;;4960949;28;20627;-55
2021/04/23 12:46:29;;;;;;;9.20;2.80;;;12.40;99.90;;;;;;4970999;28;20785;-56
2021/04/23 12:49:01;;;;;;;10.20;3.20;;;12.40;99.90;;;;;;4970435;28;20244;-58
2021/04/23 12:51:29;;;;;;;13.17;3.60;;;12.50;99.90;;;;;;4960536;28;20305;-57
2021/04/23 12:53:57;;;;;;;7.87;2.73;;;12.30;99.90;;;;;;4958730;28;20245;-55
2021/04/23 12:56:28;;;;;;;10.67;3.20;;;12.40;99.90;;;;;;4951572;28;20246;-56
2021/04/23 12:58:56;;;;;;;10.70;3.40;;;12.40;99.90;;;;;;4950630;28;20296;-56
2021/04/23 13:01:25;;;;;;;10.17;3.50;;;12.50;99.90;;;;;;4961007;28;20239;-55